createdAt,value
2022-08-26T00:01:54.331Z,9.13
2022-08-26T00:04:23.447Z,13.93
2022-08-26T00:06:51.389Z,11.10
2022-08-26T00:09:19.279Z,12.33
2022-08-26T00:11:47.557Z,11.37
2022-08-26T00:14:16.418Z,7.83
2022-08-26T00:16:48.016Z,8.23
2022-08-26T00:19:17.105Z,12.40
2022-08-26T00:21:44.968Z,11.70
2022-08-26T00:24:13.287Z,12.07
2022-08-26T00:26:41.920Z,10.27
2022-08-26T00:29:10.680Z,11.70
2022-08-26T00:31:38.416Z,10.13
2022-08-26T00:34:09.314Z,9.77
2022-08-26T00:36:37.477Z,9.00
2022-08-26T00:39:08.126Z,9.33
2022-08-26T00:41:36.503Z,9.30
2022-08-26T00:44:05.542Z,9.47
2022-08-26T00:46:37.815Z,10.40
2022-08-26T00:49:11.841Z,8.10
2022-08-26T00:51:47.310Z,8.07
2022-08-26T00:54:17.297Z,8.87
2022-08-26T00:56:50.462Z,8.23
2022-08-26T00:59:20.063Z,10.40
2022-08-26T01:01:48.201Z,9.50
2022-08-26T01:04:21.255Z,9.20
2022-08-26T01:06:51.312Z,8.90
2022-08-26T01:09:20.182Z,7.60
2022-08-26T01:11:50.498Z,9.77
2022-08-26T01:14:20.296Z,9.40
2022-08-26T01:16:49.366Z,11.10
2022-08-26T01:19:22.751Z,11.03
2022-08-26T01:21:56.347Z,12.40
2022-08-26T01:24:28.123Z,11.30
2022-08-26T01:26:59.134Z,10.00
2022-08-26T01:29:27.299Z,10.10
2022-08-26T01:31:57.501Z,10.00
2022-08-26T01:34:28.750Z,12.70
2022-08-26T01:37:02.491Z,10.67
2022-08-26T01:39:32.594Z,10.47
2022-08-26T01:42:03.163Z,9.27
2022-08-26T01:44:36.213Z,13.13
2022-08-26T01:47:06.432Z,10.70
2022-08-26T01:49:36.688Z,8.50
2022-08-26T01:52:08.612Z,11.97
2022-08-26T01:54:39.968Z,10.07
2022-08-26T01:57:08.292Z,9.27
2022-08-26T01:59:36.361Z,8.23
2022-08-26T02:02:04.188Z,8.10
2022-08-26T02:04:37.509Z,8.97
2022-08-26T02:07:07.726Z,9.60
2022-08-26T02:09:41.254Z,11.00
2022-08-26T02:12:11.733Z,10.47
2022-08-26T02:14:43.998Z,11.57
2022-08-26T02:17:12.982Z,10.13
2022-08-26T02:19:46.486Z,8.90
2022-08-26T02:22:19.922Z,9.27
2022-08-26T02:24:52.910Z,14.00
2022-08-26T02:27:24.932Z,12.80
2022-08-26T02:29:59.389Z,13.03
2022-08-26T02:32:29.065Z,11.80
2022-08-26T02:34:56.718Z,11.43
2022-08-26T02:37:24.433Z,10.20
2022-08-26T02:39:54.545Z,10.50
2022-08-26T02:42:22.389Z,9.90
2022-08-26T02:44:50.595Z,10.53
2022-08-26T02:47:18.457Z,10.50
2022-08-26T02:49:47.194Z,11.67
2022-08-26T02:52:15.630Z,10.87
2022-08-26T02:54:43.814Z,9.30
2022-08-26T02:57:15.185Z,10.07
2022-08-26T02:59:43.095Z,11.50
2022-08-26T03:02:12.397Z,10.60
2022-08-26T03:04:41.332Z,11.80
2022-08-26T03:07:25.990Z,9.77
2022-08-26T03:09:53.964Z,11.30
2022-08-26T03:12:23.259Z,11.90
2022-08-26T03:14:51.578Z,11.37
2022-08-26T03:17:21.068Z,12.33
2022-08-26T03:19:54.252Z,10.93
2022-08-26T03:22:26.070Z,10.00
2022-08-26T03:24:55.100Z,11.13
2022-08-26T03:27:24.302Z,10.70
2022-08-26T03:30:11.832Z,10.57
2022-08-26T03:32:41.566Z,11.33
2022-08-26T03:35:10.011Z,13.33
2022-08-26T03:37:37.889Z,9.40
2022-08-26T03:40:08.198Z,13.13
2022-08-26T03:42:38.898Z,9.07
2022-08-26T03:45:10.441Z,9.93
2022-08-26T03:47:38.142Z,9.60
2022-08-26T03:50:07.337Z,9.83
2022-08-26T03:52:35.421Z,10.00
2022-08-26T03:55:06.868Z,10.93
2022-08-26T03:57:34.547Z,10.67
2022-08-26T04:00:06.302Z,13.63
2022-08-26T04:02:34.095Z,11.33
2022-08-26T04:05:02.521Z,9.93
2022-08-26T04:07:32.053Z,10.57
2022-08-26T04:10:03.173Z,12.43
2022-08-26T04:12:30.945Z,10.53
2022-08-26T04:14:59.070Z,19.40
2022-08-26T04:17:29.599Z,11.33
2022-08-26T04:19:57.556Z,10.30
2022-08-26T04:22:25.350Z,14.50
2022-08-26T04:24:53.271Z,10.77
2022-08-26T04:27:21.017Z,10.67
2022-08-26T04:29:52.449Z,11.67
2022-08-26T04:32:22.817Z,13.90
2022-08-26T04:34:51.878Z,9.80
2022-08-26T04:37:19.585Z,10.30
2022-08-26T04:39:51.197Z,11.70
2022-08-26T04:42:22.789Z,12.43
2022-08-26T04:44:55.350Z,16.87
2022-08-26T04:47:23.082Z,12.17
2022-08-26T04:49:56.303Z,10.70
2022-08-26T04:52:29.190Z,12.77
2022-08-26T04:55:00.617Z,12.53
2022-08-26T04:57:28.619Z,9.50
2022-08-26T04:59:56.523Z,10.87
2022-08-26T05:02:25.098Z,10.93
2022-08-26T05:04:54.238Z,12.40
2022-08-26T05:07:21.944Z,10.00
2022-08-26T05:09:50.184Z,10.50
2022-08-26T05:12:18.076Z,12.47
2022-08-26T05:14:46.713Z,15.07
2022-08-26T05:17:15.077Z,11.30
2022-08-26T05:19:44.517Z,10.93
2022-08-26T05:22:13.854Z,12.23
2022-08-26T05:24:43.222Z,13.50
2022-08-26T05:27:11.969Z,12.10
2022-08-26T05:29:40.555Z,10.40
2022-08-26T05:32:08.531Z,12.00
2022-08-26T05:34:39.085Z,10.70
2022-08-26T05:37:07.040Z,12.50
2022-08-26T05:39:36.612Z,11.63
2022-08-26T05:42:05.731Z,11.40
2022-08-26T05:44:53.591Z,10.43
2022-08-26T05:47:21.271Z,12.57
2022-08-26T05:49:51.863Z,12.50
2022-08-26T05:52:20.023Z,11.93
2022-08-26T05:54:49.333Z,13.23
2022-08-26T05:57:17.432Z,15.43
2022-08-26T05:59:46.320Z,13.57
2022-08-26T06:02:14.090Z,14.10
2022-08-26T06:04:42.099Z,11.77
2022-08-26T06:07:12.029Z,14.43
2022-08-26T06:09:41.456Z,13.23
2022-08-26T06:12:11.160Z,15.27
2022-08-26T06:14:38.926Z,11.17
2022-08-26T06:17:09.618Z,15.53
2022-08-26T06:19:37.476Z,13.73
2022-08-26T06:22:29.082Z,10.60
2022-08-26T06:25:14.073Z,13.03
2022-08-26T06:27:43.104Z,10.43
2022-08-26T06:30:12.645Z,15.60
2022-08-26T06:32:40.315Z,14.37
2022-08-26T06:35:11.860Z,13.03
2022-08-26T06:37:40.398Z,12.50
2022-08-26T06:40:09.805Z,12.63
2022-08-26T06:42:39.261Z,12.30
2022-08-26T06:45:09.477Z,16.67
2022-08-26T06:47:38.970Z,11.83
2022-08-26T06:50:07.784Z,11.67
2022-08-26T06:52:35.455Z,19.23
2022-08-26T06:55:03.436Z,11.63
2022-08-26T06:57:32.863Z,10.50
2022-08-26T07:00:02.990Z,13.87
2022-08-26T07:02:33.199Z,16.63
2022-08-26T07:05:02.957Z,13.73
2022-08-26T07:07:30.725Z,17.53
2022-08-26T07:09:58.407Z,14.27
2022-08-26T07:12:26.524Z,14.63
2022-08-26T07:14:54.363Z,12.27
2022-08-26T07:17:24.969Z,14.17
2022-08-26T07:19:54.624Z,15.00
2022-08-26T07:22:22.356Z,15.80
2022-08-26T07:24:52.214Z,15.73
2022-08-26T07:27:19.986Z,12.97
2022-08-26T07:29:48.709Z,15.73
2022-08-26T07:32:18.235Z,12.10
2022-08-26T07:34:46.972Z,11.87
2022-08-26T07:37:17.509Z,17.03
2022-08-26T07:39:46.042Z,18.33
2022-08-26T07:42:18.527Z,15.83
2022-08-26T07:44:46.418Z,14.70
2022-08-26T07:47:24.666Z,19.53
2022-08-26T07:49:55.216Z,12.47
2022-08-26T07:52:27.003Z,18.00
2022-08-26T07:54:55.874Z,11.20
2022-08-26T07:57:24.253Z,21.30
2022-08-26T07:59:52.258Z,12.83
2022-08-26T08:02:23.011Z,22.80
2022-08-26T08:04:51.694Z,20.40
2022-08-26T08:07:19.665Z,16.80
2022-08-26T08:09:50.046Z,16.20
2022-08-26T08:12:18.080Z,17.00
2022-08-26T08:14:46.870Z,21.40
2022-08-26T08:17:16.366Z,13.40
2022-08-26T08:19:44.638Z,11.43
2022-08-26T08:22:17.220Z,15.80
2022-08-26T08:24:49.992Z,12.40
2022-08-26T08:27:23.854Z,16.97
2022-08-26T08:29:54.271Z,15.63
2022-08-26T08:32:22.881Z,10.30
2022-08-26T08:34:51.090Z,14.23
2022-08-26T08:37:19.530Z,13.60
2022-08-26T08:39:47.353Z,10.40
2022-08-26T08:42:44.556Z,12.67
2022-08-26T08:45:16.878Z,9.27
2022-08-26T08:47:51.422Z,10.00
2022-08-26T08:50:28.122Z,10.87
2022-08-26T08:53:04.139Z,13.60
2022-08-26T08:55:46.234Z,10.27
2022-08-26T08:58:20.540Z,9.63
2022-08-26T09:00:52.533Z,18.17
2022-08-26T09:03:36.254Z,11.43
2022-08-26T09:06:16.864Z,12.60
2022-08-26T09:08:46.974Z,13.70
2022-08-26T09:11:20.005Z,13.23
2022-08-26T09:13:52.979Z,9.33
2022-08-26T09:16:25.169Z,12.80
2022-08-26T09:19:03.825Z,13.40
2022-08-26T09:21:32.609Z,17.90
2022-08-26T09:24:01.019Z,10.27
2022-08-26T09:26:31.600Z,12.83
2022-08-26T09:29:02.351Z,13.90
2022-08-26T09:31:32.427Z,11.97
2022-08-26T09:34:17.780Z,11.00
2022-08-26T09:36:48.563Z,19.47
2022-08-26T09:39:29.075Z,14.70
2022-08-26T09:42:06.665Z,20.30
2022-08-26T09:44:53.151Z,18.90
2022-08-26T09:47:26.759Z,10.97
2022-08-26T09:50:00.280Z,12.03
2022-08-26T09:52:28.210Z,12.93
2022-08-26T09:55:03.445Z,9.30
2022-08-26T09:57:34.268Z,10.90
2022-08-26T10:00:23.983Z,19.40
2022-08-26T10:02:54.903Z,21.30
2022-08-26T10:05:33.097Z,12.47
2022-08-26T10:08:02.209Z,15.53
2022-08-26T10:10:34.762Z,11.43
2022-08-26T10:13:09.039Z,12.20
2022-08-26T10:15:50.075Z,18.47
2022-08-26T10:18:22.938Z,13.00
2022-08-26T10:20:58.735Z,19.53
2022-08-26T10:23:32.448Z,12.67
2022-08-26T10:26:06.980Z,15.17
2022-08-26T10:28:41.186Z,15.17
2022-08-26T10:31:28.495Z,18.53
2022-08-26T10:34:00.415Z,18.60
2022-08-26T10:37:15.543Z,15.37
2022-08-26T10:39:46.232Z,16.70
2022-08-26T10:42:21.203Z,14.70
2022-08-26T10:44:53.051Z,13.70
2022-08-26T10:47:27.170Z,13.93
2022-08-26T10:50:00.439Z,14.73
2022-08-26T10:52:40.703Z,16.47
2022-08-26T10:55:17.826Z,25.23
2022-08-26T10:57:56.068Z,14.13
2022-08-26T11:00:48.513Z,10.90
2022-08-26T11:03:31.502Z,14.07
2022-08-26T11:06:23.861Z,17.63
2022-08-26T11:08:53.523Z,17.57
2022-08-26T11:11:45.292Z,11.27
2022-08-26T11:14:53.602Z,13.57
2022-08-26T11:18:00.358Z,15.17
2022-08-26T11:20:39.119Z,19.37
2022-08-26T11:23:38.403Z,19.20
2022-08-26T11:26:27.471Z,16.10
2022-08-26T11:29:13.104Z,8.83
2022-08-26T11:31:56.741Z,9.80
2022-08-26T11:34:52.379Z,12.10
2022-08-26T11:37:25.770Z,12.23
2022-08-26T11:39:57.181Z,14.47
2022-08-26T11:42:33.215Z,19.07
2022-08-26T11:45:05.506Z,13.80
2022-08-26T11:47:33.890Z,20.37
2022-08-26T11:50:10.811Z,13.50
2022-08-26T11:52:40.093Z,13.30
2022-08-26T11:55:11.991Z,20.80
2022-08-26T11:57:45.417Z,15.20
2022-08-26T12:00:22.202Z,21.87
2022-08-26T12:02:52.619Z,23.83
2022-08-26T12:05:25.504Z,16.53
2022-08-26T12:08:02.370Z,14.30
2022-08-26T12:10:33.531Z,18.80
2022-08-26T12:13:03.517Z,13.47
2022-08-26T12:15:33.036Z,14.00
2022-08-26T12:18:20.713Z,11.77
2022-08-26T12:20:59.830Z,9.20
2022-08-26T12:23:40.097Z,17.50
2022-08-26T12:26:11.475Z,13.33
2022-08-26T12:28:47.452Z,12.50
2022-08-26T12:31:24.051Z,13.00
2022-08-26T12:33:53.133Z,14.80
2022-08-26T12:36:27.423Z,9.60
2022-08-26T12:38:58.606Z,16.93
2022-08-26T12:41:41.858Z,19.63
2022-08-26T12:44:09.820Z,33.27
2022-08-26T12:46:37.601Z,17.93
2022-08-26T12:49:05.384Z,19.83
2022-08-26T12:51:35.233Z,18.00
2022-08-26T12:54:06.772Z,13.33
2022-08-26T12:56:38.097Z,16.80
2022-08-26T12:59:12.207Z,14.83
2022-08-26T13:01:44.053Z,16.17
2022-08-26T13:04:35.112Z,17.83
2022-08-26T13:07:20.083Z,14.10
2022-08-26T13:09:50.220Z,14.03
2022-08-26T13:12:26.057Z,14.30
2022-08-26T13:14:54.038Z,13.33
2022-08-26T13:17:22.010Z,16.77
2022-08-26T13:19:49.733Z,14.47
2022-08-26T13:22:22.935Z,15.63
2022-08-26T13:24:55.267Z,13.97
2022-08-26T13:27:26.138Z,18.00
2022-08-26T13:29:54.730Z,17.20
2022-08-26T13:32:27.458Z,19.30
2022-08-26T13:34:57.295Z,21.67
2022-08-26T13:37:35.149Z,26.87
2022-08-26T13:40:06.794Z,15.00
2022-08-26T13:42:34.713Z,20.77
2022-08-26T13:45:02.772Z,19.20
2022-08-26T13:47:30.687Z,24.17
2022-08-26T13:49:58.458Z,17.97
2022-08-26T13:52:30.552Z,19.33
2022-08-26T13:54:59.094Z,16.90
2022-08-26T13:57:29.944Z,23.83
2022-08-26T13:59:59.007Z,16.33
2022-08-26T14:02:27.202Z,13.90
2022-08-26T14:04:55.354Z,15.03
2022-08-26T14:07:23.551Z,18.27
2022-08-26T14:09:51.244Z,19.80
2022-08-26T14:12:19.090Z,19.93
2022-08-26T14:14:48.163Z,14.40
2022-08-26T14:17:19.490Z,15.07
2022-08-26T14:19:50.222Z,16.23
2022-08-26T14:22:21.135Z,16.57
2022-08-26T14:24:50.111Z,14.40
2022-08-26T14:27:17.816Z,17.33
2022-08-26T14:29:45.600Z,17.43
2022-08-26T14:32:25.627Z,17.70
2022-08-26T14:34:53.512Z,14.07
2022-08-26T14:37:21.954Z,16.67
2022-08-26T14:39:49.790Z,20.10
2022-08-26T14:42:23.140Z,18.00
2022-08-26T14:44:55.983Z,16.27
2022-08-26T14:47:25.562Z,18.10
2022-08-26T14:49:53.306Z,18.97
2022-08-26T14:52:21.401Z,19.37
2022-08-26T14:54:48.133Z,23.17
2022-08-26T14:57:22.776Z,13.80
2022-08-26T14:59:50.633Z,23.90
2022-08-26T15:02:32.302Z,17.30
2022-08-26T15:05:03.953Z,17.17
2022-08-26T15:07:32.212Z,19.20
2022-08-26T15:09:59.981Z,20.37
2022-08-26T15:12:27.777Z,19.63
2022-08-26T15:14:55.475Z,16.33
2022-08-26T15:17:23.338Z,18.97
2022-08-26T15:19:51.643Z,19.60
2022-08-26T15:22:20.769Z,14.80
2022-08-26T15:24:51.836Z,17.10
2022-08-26T15:27:21.835Z,11.17
2022-08-26T15:29:49.605Z,11.47
2022-08-26T15:32:17.297Z,11.87
2022-08-26T15:34:45.285Z,15.47
2022-08-26T15:37:13.168Z,10.83
2022-08-26T15:39:42.451Z,12.17
2022-08-26T15:42:11.025Z,18.00
2022-08-26T15:44:43.232Z,11.77
2022-08-26T15:47:10.985Z,11.83
2022-08-26T15:49:38.693Z,13.10
2022-08-26T15:52:06.716Z,23.13
2022-08-26T15:54:35.217Z,13.50
2022-08-26T15:57:08.186Z,11.83
2022-08-26T15:59:38.609Z,13.37
2022-08-26T16:02:06.513Z,15.60
2022-08-26T16:04:34.306Z,19.37
2022-08-26T16:07:02.152Z,12.30
2022-08-26T16:09:30.723Z,10.73
2022-08-26T16:11:59.291Z,8.30
2022-08-26T16:14:28.418Z,9.00
2022-08-26T16:16:57.698Z,9.87
2022-08-26T16:19:25.611Z,7.30
2022-08-26T16:21:53.480Z,12.67
2022-08-26T16:24:24.874Z,14.83
2022-08-26T16:26:55.648Z,11.13
2022-08-26T16:29:24.473Z,9.83
2022-08-26T16:31:54.678Z,18.77
2022-08-26T16:34:22.831Z,14.03
2022-08-26T16:36:50.616Z,17.80
2022-08-26T16:39:18.428Z,13.93
2022-08-26T16:41:46.191Z,16.00
2022-08-26T16:44:14.026Z,14.00
2022-08-26T16:46:41.802Z,13.27
2022-08-26T16:49:11.232Z,13.10
2022-08-26T16:51:38.995Z,19.17
2022-08-26T16:54:08.545Z,13.30
2022-08-26T16:56:37.051Z,14.97
2022-08-26T16:59:06.274Z,12.87
2022-08-26T17:01:34.114Z,15.13
2022-08-26T17:04:01.914Z,16.07
2022-08-26T17:06:31.162Z,12.03
2022-08-26T17:08:58.962Z,13.13
2022-08-26T17:11:26.691Z,11.90
2022-08-26T17:13:54.472Z,13.70
2022-08-26T17:16:26.471Z,9.73
2022-08-26T17:18:56.037Z,10.60
2022-08-26T17:21:23.957Z,11.50
2022-08-26T17:23:53.411Z,9.83
2022-08-26T17:26:21.220Z,8.70
2022-08-26T17:28:50.487Z,12.53
2022-08-26T17:31:18.540Z,9.43
2022-08-26T17:33:50.270Z,9.23
2022-08-26T17:36:21.333Z,9.10
2022-08-26T17:38:50.283Z,8.73
2022-08-26T17:41:23.399Z,7.60
2022-08-26T17:43:51.360Z,12.40
2022-08-26T17:46:19.075Z,7.93
2022-08-26T17:48:47.177Z,5.63
2022-08-26T17:51:19.148Z,6.20
2022-08-26T17:53:47.820Z,5.00
2022-08-26T17:56:17.102Z,6.80
2022-08-26T17:58:51.201Z,4.50
2022-08-26T18:01:19.889Z,6.53
2022-08-26T18:03:47.857Z,6.27
2022-08-26T18:06:16.274Z,6.03
2022-08-26T18:08:44.851Z,6.77
2022-08-26T18:11:14.335Z,6.60
2022-08-26T18:13:47.171Z,8.17
2022-08-26T18:16:18.154Z,10.43
2022-08-26T18:18:47.515Z,11.83
2022-08-26T18:21:18.017Z,17.37
2022-08-26T18:23:46.914Z,9.93
2022-08-26T18:26:20.401Z,22.60
2022-08-26T18:28:50.635Z,13.17
2022-08-26T18:31:21.662Z,9.47
2022-08-26T18:33:51.048Z,12.20
2022-08-26T18:36:25.048Z,10.47
2022-08-26T18:38:56.827Z,12.67
2022-08-26T18:41:26.972Z,12.10
2022-08-26T18:43:57.107Z,15.00
2022-08-26T18:46:29.407Z,16.50
2022-08-26T18:49:02.006Z,16.80
2022-08-26T18:51:33.171Z,12.23
2022-08-26T18:54:04.756Z,19.07
2022-08-26T18:56:34.652Z,13.40
2022-08-26T18:59:02.916Z,13.10
2022-08-26T19:01:36.490Z,10.90
2022-08-26T19:04:07.782Z,9.73
2022-08-26T19:06:39.558Z,13.47
2022-08-26T19:09:12.033Z,12.17
2022-08-26T19:11:47.004Z,12.83
2022-08-26T19:14:19.691Z,13.73
2022-08-26T19:16:52.999Z,12.70
2022-08-26T19:19:24.407Z,12.17
2022-08-26T19:21:54.755Z,19.97
2022-08-26T19:24:23.167Z,11.80
2022-08-26T19:26:58.339Z,18.00
2022-08-26T19:29:28.433Z,14.23
2022-08-26T19:31:58.994Z,11.87
2022-08-26T19:34:27.915Z,11.90
2022-08-26T19:36:58.217Z,18.40
2022-08-26T19:39:26.824Z,13.03
2022-08-26T19:41:54.962Z,14.20
2022-08-26T19:44:42.158Z,12.63
2022-08-26T19:47:12.554Z,14.67
2022-08-26T19:49:40.281Z,13.70
2022-08-26T19:52:08.274Z,14.57
2022-08-26T19:54:36.578Z,14.97
2022-08-26T19:57:05.721Z,13.90
2022-08-26T19:59:35.391Z,13.50
2022-08-26T20:02:07.124Z,14.70
2022-08-26T20:04:40.767Z,11.90
2022-08-26T20:07:09.749Z,13.53
2022-08-26T20:09:38.317Z,13.53
2022-08-26T20:12:07.947Z,14.53
2022-08-26T20:14:36.716Z,14.10
2022-08-26T20:17:05.122Z,12.50
2022-08-26T20:20:05.138Z,13.63
2022-08-26T20:22:34.744Z,12.37
2022-08-26T20:25:02.923Z,11.63
2022-08-26T20:27:38.292Z,11.07
2022-08-26T20:30:08.924Z,17.50
2022-08-26T20:32:37.453Z,18.23
2022-08-26T20:35:07.258Z,15.07
2022-08-26T20:37:37.739Z,16.07
2022-08-26T20:40:08.382Z,15.60
2022-08-26T20:42:36.783Z,13.97
2022-08-26T20:45:06.038Z,13.60
2022-08-26T20:47:33.884Z,12.90
2022-08-26T20:50:04.039Z,13.10
2022-08-26T20:52:32.757Z,12.00
2022-08-26T20:55:02.480Z,15.63
2022-08-26T20:57:30.314Z,19.23
2022-08-26T20:59:58.072Z,13.60
2022-08-26T21:02:25.816Z,14.87
2022-08-26T21:04:53.675Z,13.60
2022-08-26T21:07:21.468Z,14.17
2022-08-26T21:09:50.129Z,15.73
2022-08-26T21:12:20.824Z,13.20
2022-08-26T21:14:49.792Z,15.77
2022-08-26T21:17:17.955Z,13.17
2022-08-26T21:19:45.766Z,12.63
2022-08-26T21:22:14.137Z,16.20
2022-08-26T21:24:41.904Z,15.30
2022-08-26T21:27:09.723Z,15.10
2022-08-26T21:29:38.786Z,14.30
2022-08-26T21:32:07.391Z,14.77
2022-08-26T21:34:35.265Z,13.90
2022-08-26T21:37:03.035Z,14.73
2022-08-26T21:39:36.792Z,16.37
2022-08-26T21:42:07.717Z,17.20
2022-08-26T21:44:35.513Z,15.20
2022-08-26T21:47:04.830Z,12.93
2022-08-26T21:49:32.681Z,13.23
2022-08-26T21:52:01.572Z,13.57
2022-08-26T21:54:29.349Z,13.00
2022-08-26T21:56:57.121Z,13.77
2022-08-26T21:59:25.366Z,14.20
2022-08-26T22:01:54.597Z,15.77
2022-08-26T22:04:24.326Z,12.57
2022-08-26T22:06:55.263Z,17.03
2022-08-26T22:09:25.882Z,15.20
2022-08-26T22:11:56.850Z,13.53
2022-08-26T22:14:30.505Z,17.67
2022-08-26T22:16:59.771Z,13.67
2022-08-26T22:19:29.830Z,14.53
2022-08-26T22:21:57.793Z,14.80
2022-08-26T22:24:27.342Z,17.80
2022-08-26T22:26:56.127Z,14.07
2022-08-26T22:29:25.632Z,17.00
2022-08-26T22:31:54.685Z,14.27
2022-08-26T22:34:23.216Z,14.83
2022-08-26T22:36:52.474Z,15.87
2022-08-26T22:39:23.451Z,15.77
2022-08-26T22:41:52.084Z,14.40
2022-08-26T22:44:22.031Z,20.07
2022-08-26T22:46:51.449Z,15.70
2022-08-26T22:49:19.616Z,17.37
2022-08-26T22:51:47.714Z,16.20
2022-08-26T22:54:17.538Z,15.03
2022-08-26T22:56:46.039Z,16.50
2022-08-26T22:59:16.115Z,19.33
2022-08-26T23:01:44.657Z,19.20
2022-08-26T23:04:12.846Z,19.60
2022-08-26T23:06:47.598Z,17.93
2022-08-26T23:09:18.433Z,19.40
2022-08-26T23:11:47.344Z,19.93
2022-08-26T23:14:15.590Z,18.37
2022-08-26T23:16:43.680Z,15.80
2022-08-26T23:19:13.234Z,18.70
2022-08-26T23:21:41.413Z,19.77
2022-08-26T23:24:09.983Z,15.90
2022-08-26T23:26:40.011Z,16.70
2022-08-26T23:29:09.622Z,20.30
2022-08-26T23:31:38.028Z,22.50
2022-08-26T23:34:23.734Z,23.40
2022-08-26T23:36:52.642Z,27.37
2022-08-26T23:39:21.741Z,31.43
2022-08-26T23:41:50.838Z,25.97
2022-08-26T23:44:19.645Z,29.00
2022-08-26T23:46:47.455Z,25.10
2022-08-26T23:49:15.215Z,36.57
2022-08-26T23:51:59.862Z,33.20
2022-08-26T23:54:27.667Z,32.07
2022-08-26T23:56:56.881Z,38.33
2022-08-26T23:59:24.693Z,31.90
